sensor_id;sensor_type;location;lat;lon;timestamp;P1;durP1;ratioP1;P2;durP2;ratioP2
13075;SDS011;6604;52.484;13.330;2023-04-12T07:48:17;2.37;;;2.17;;
13075;SDS011;6604;52.484;13.330;2023-04-12T07:50:44;4.43;;;2.20;;
13075;SDS011;6604;52.484;13.330;2023-04-12T07:53:17;4.37;;;2.80;;
13075;SDS011;6604;52.484;13.330;2023-04-12T07:55:44;5.07;;;2.30;;
13075;SDS011;6604;52.484;13.330;2023-04-12T07:58:11;4.17;;;2.37;;
13075;SDS011;6604;52.484;13.330;2023-04-12T08:00:37;4.80;;;2.20;;
13075;SDS011;6604;52.484;13.330;2023-04-12T08:03:04;2.60;;;2.20;;
13075;SDS011;6604;52.484;13.330;2023-04-12T08:05:32;2.50;;;1.87;;
13075;SDS011;6604;52.484;13.330;2023-04-12T08:07:59;3.00;;;1.63;;
13075;SDS011;6604;52.484;13.330;2023-04-12T08:10:25;4.47;;;1.90;;
13075;SDS011;6604;52.484;13.330;2023-04-12T08:12:52;2.50;;;1.63;;
13075;SDS011;6604;52.484;13.330;2023-04-12T08:15:18;1.60;;;1.50;;
13075;SDS011;6604;52.484;13.330;2023-04-12T08:17:45;2.00;;;1.80;;
13075;SDS011;6604;52.484;13.330;2023-04-12T08:20:12;2.27;;;1.20;;
13075;SDS011;6604;52.484;13.330;2023-04-12T08:22:40;1.43;;;1.10;;
13075;SDS011;6604;52.484;13.330;2023-04-12T08:25:07;3.67;;;1.40;;
13075;SDS011;6604;52.484;13.330;2023-04-12T08:27:34;6.87;;;1.73;;
13075;SDS011;6604;52.484;13.330;2023-04-12T08:30:01;4.30;;;1.40;;
13075;SDS011;6604;52.484;13.330;2023-04-12T08:32:27;2.77;;;1.20;;
13075;SDS011;6604;52.484;13.330;2023-04-12T08:34:54;3.10;;;1.30;;
13075;SDS011;6604;52.484;13.330;2023-04-12T08:37:21;3.17;;;1.50;;
13075;SDS011;6604;52.484;13.330;2023-04-12T08:39:49;4.33;;;1.40;;
13075;SDS011;6604;52.484;13.330;2023-04-12T08:42:15;5.67;;;1.60;;
13075;SDS011;6604;52.484;13.330;2023-04-12T08:44:42;2.17;;;1.10;;
13075;SDS011;6604;52.484;13.330;2023-04-12T08:47:09;2.20;;;1.40;;
13075;SDS011;6604;52.484;13.330;2023-04-12T08:49:36;3.10;;;1.47;;
13075;SDS011;6604;52.484;13.330;2023-04-12T08:52:03;4.27;;;1.33;;
13075;SDS011;6604;52.484;13.330;2023-04-12T08:54:30;2.73;;;1.10;;
13075;SDS011;6604;52.484;13.330;2023-04-12T08:56:59;2.33;;;1.20;;
13075;SDS011;6604;52.484;13.330;2023-04-12T08:59:26;2.53;;;0.90;;
13075;SDS011;6604;52.484;13.330;2023-04-12T09:01:53;2.00;;;1.33;;
13075;SDS011;6604;52.484;13.330;2023-04-12T09:04:20;3.80;;;1.10;;
13075;SDS011;6604;52.484;13.330;2023-04-12T09:06:47;4.40;;;1.30;;
13075;SDS011;6604;52.484;13.330;2023-04-12T09:09:13;3.60;;;1.33;;
13075;SDS011;6604;52.484;13.330;2023-04-12T09:11:40;2.57;;;1.30;;
13075;SDS011;6604;52.484;13.330;2023-04-12T09:14:20;3.70;;;1.40;;
13075;SDS011;6604;52.484;13.330;2023-04-12T09:16:47;2.27;;;1.50;;
13075;SDS011;6604;52.484;13.330;2023-04-12T09:19:14;3.37;;;1.53;;
13075;SDS011;6604;52.484;13.330;2023-04-12T09:21:50;4.30;;;1.43;;
13075;SDS011;6604;52.484;13.330;2023-04-12T09:24:17;1.93;;;1.20;;
13075;SDS011;6604;52.484;13.330;2023-04-12T09:26:43;4.07;;;1.30;;
13075;SDS011;6604;52.484;13.330;2023-04-12T09:29:22;2.90;;;1.30;;
13075;SDS011;6604;52.484;13.330;2023-04-12T09:31:54;2.70;;;1.47;;
13075;SDS011;6604;52.484;13.330;2023-04-12T09:34:20;4.10;;;1.50;;
13075;SDS011;6604;52.484;13.330;2023-04-12T09:36:47;3.90;;;1.80;;
13075;SDS011;6604;52.484;13.330;2023-04-12T09:39:13;2.17;;;1.10;;
13075;SDS011;6604;52.484;13.330;2023-04-12T09:41:40;4.00;;;1.60;;
13075;SDS011;6604;52.484;13.330;2023-04-12T09:44:06;3.40;;;1.30;;
13075;SDS011;6604;52.484;13.330;2023-04-12T09:46:34;3.63;;;1.37;;
13075;SDS011;6604;52.484;13.330;2023-04-12T09:49:01;3.80;;;1.50;;
13075;SDS011;6604;52.484;13.330;2023-04-12T09:51:31;3.43;;;1.50;;
13075;SDS011;6604;52.484;13.330;2023-04-12T09:53:58;2.90;;;1.20;;
13075;SDS011;6604;52.484;13.330;2023-04-12T09:56:27;4.10;;;1.57;;
13075;SDS011;6604;52.484;13.330;2023-04-12T09:58:53;4.93;;;1.50;;
13075;SDS011;6604;52.484;13.330;2023-04-12T10:01:20;1.40;;;1.20;;
13075;SDS011;6604;52.484;13.330;2023-04-12T10:03:49;2.80;;;1.30;;
13075;SDS011;6604;52.484;13.330;2023-04-12T10:06:17;4.13;;;1.30;;
13075;SDS011;6604;52.484;13.330;2023-04-12T10:08:44;2.97;;;1.47;;
13075;SDS011;6604;52.484;13.330;2023-04-12T10:11:11;2.93;;;1.60;;
13075;SDS011;6604;52.484;13.330;2023-04-12T10:13:38;3.63;;;1.53;;
13075;SDS011;6604;52.484;13.330;2023-04-12T10:16:06;3.47;;;1.80;;
13075;SDS011;6604;52.484;13.330;2023-04-12T10:18:33;4.47;;;1.40;;
13075;SDS011;6604;52.484;13.330;2023-04-12T10:21:02;3.37;;;1.37;;
13075;SDS011;6604;52.484;13.330;2023-04-12T10:23:30;5.37;;;2.00;;
13075;SDS011;6604;52.484;13.330;2023-04-12T10:25:57;7.63;;;1.53;;
13075;SDS011;6604;52.484;13.330;2023-04-12T10:28:24;5.47;;;1.67;;
13075;SDS011;6604;52.484;13.330;2023-04-12T10:30:51;4.20;;;1.40;;
13075;SDS011;6604;52.484;13.330;2023-04-12T10:33:24;2.93;;;1.37;;
13075;SDS011;6604;52.484;13.330;2023-04-12T10:35:51;7.27;;;1.60;;
13075;SDS011;6604;52.484;13.330;2023-04-12T10:38:20;3.03;;;1.40;;
13075;SDS011;6604;52.484;13.330;2023-04-12T10:43:49;3.70;;;1.57;;
13075;SDS011;6604;52.484;13.330;2023-04-12T10:49:06;2.10;;;1.50;;
13075;SDS011;6604;52.484;13.330;2023-04-12T10:51:32;4.90;;;1.70;;
13075;SDS011;6604;52.484;13.330;2023-04-12T10:56:42;6.30;;;1.90;;
13075;SDS011;6604;52.484;13.330;2023-04-12T10:59:09;2.97;;;1.60;;
13075;SDS011;6604;52.484;13.330;2023-04-12T11:01:35;2.70;;;1.37;;
13075;SDS011;6604;52.484;13.330;2023-04-12T11:04:06;3.03;;;1.60;;
13075;SDS011;6604;52.484;13.330;2023-04-12T11:06:46;4.33;;;1.93;;
13075;SDS011;6604;52.484;13.330;2023-04-12T11:09:16;2.63;;;1.30;;
13075;SDS011;6604;52.484;13.330;2023-04-12T11:11:44;4.47;;;2.00;;
13075;SDS011;6604;52.484;13.330;2023-04-12T11:14:11;2.10;;;1.50;;
13075;SDS011;6604;52.484;13.330;2023-04-12T11:19:19;3.00;;;1.30;;
13075;SDS011;6604;52.484;13.330;2023-04-12T11:21:46;4.43;;;1.63;;
13075;SDS011;6604;52.484;13.330;2023-04-12T11:24:12;2.90;;;1.33;;
13075;SDS011;6604;52.484;13.330;2023-04-12T11:26:39;2.70;;;1.33;;
13075;SDS011;6604;52.484;13.330;2023-04-12T11:29:07;5.03;;;1.40;;
13075;SDS011;6604;52.484;13.330;2023-04-12T11:31:37;4.07;;;1.60;;
13075;SDS011;6604;52.484;13.330;2023-04-12T11:34:03;2.23;;;1.83;;
13075;SDS011;6604;52.484;13.330;2023-04-12T11:36:30;1.97;;;1.30;;
13075;SDS011;6604;52.484;13.330;2023-04-12T11:38:57;2.70;;;1.40;;
13075;SDS011;6604;52.484;13.330;2023-04-12T11:41:23;3.13;;;1.10;;
13075;SDS011;6604;52.484;13.330;2023-04-12T11:43:50;2.60;;;1.30;;
13075;SDS011;6604;52.484;13.330;2023-04-12T11:46:19;11.10;;;1.73;;
13075;SDS011;6604;52.484;13.330;2023-04-12T11:48:45;3.27;;;1.30;;
13075;SDS011;6604;52.484;13.330;2023-04-12T11:51:18;3.23;;;1.30;;
13075;SDS011;6604;52.484;13.330;2023-04-12T11:53:45;3.30;;;1.50;;
13075;SDS011;6604;52.484;13.330;2023-04-12T11:56:11;4.93;;;1.50;;
13075;SDS011;6604;52.484;13.330;2023-04-12T11:58:38;2.77;;;1.40;;
13075;SDS011;6604;52.484;13.330;2023-04-12T12:01:04;2.53;;;1.20;;
13075;SDS011;6604;52.484;13.330;2023-04-12T12:03:32;3.97;;;1.50;;
13075;SDS011;6604;52.484;13.330;2023-04-12T12:05:59;2.53;;;1.30;;
13075;SDS011;6604;52.484;13.330;2023-04-12T12:08:25;2.40;;;1.27;;
13075;SDS011;6604;52.484;13.330;2023-04-12T12:10:52;1.90;;;1.10;;
13075;SDS011;6604;52.484;13.330;2023-04-12T12:13:18;3.83;;;1.13;;
13075;SDS011;6604;52.484;13.330;2023-04-12T12:15:45;2.83;;;1.40;;
13075;SDS011;6604;52.484;13.330;2023-04-12T12:18:12;4.53;;;1.30;;
13075;SDS011;6604;52.484;13.330;2023-04-12T12:20:41;3.03;;;1.40;;
13075;SDS011;6604;52.484;13.330;2023-04-12T12:23:08;3.80;;;1.23;;
13075;SDS011;6604;52.484;13.330;2023-04-12T12:25:34;2.97;;;1.60;;
13075;SDS011;6604;52.484;13.330;2023-04-12T12:28:01;3.17;;;1.30;;
13075;SDS011;6604;52.484;13.330;2023-04-12T12:30:29;4.23;;;1.30;;
13075;SDS011;6604;52.484;13.330;2023-04-12T12:32:56;3.87;;;1.50;;
13075;SDS011;6604;52.484;13.330;2023-04-12T12:35:23;5.40;;;1.30;;
13075;SDS011;6604;52.484;13.330;2023-04-12T12:37:52;2.37;;;1.17;;
13075;SDS011;6604;52.484;13.330;2023-04-12T12:40:27;4.90;;;2.03;;
13075;SDS011;6604;52.484;13.330;2023-04-12T12:42:56;2.73;;;1.40;;
13075;SDS011;6604;52.484;13.330;2023-04-12T12:45:26;5.90;;;2.17;;
13075;SDS011;6604;52.484;13.330;2023-04-12T12:47:53;2.83;;;1.10;;
13075;SDS011;6604;52.484;13.330;2023-04-12T12:50:21;2.30;;;1.20;;
13075;SDS011;6604;52.484;13.330;2023-04-12T12:52:48;6.43;;;1.50;;
13075;SDS011;6604;52.484;13.330;2023-04-12T12:55:17;5.27;;;1.57;;
13075;SDS011;6604;52.484;13.330;2023-04-12T12:57:45;4.37;;;1.60;;
13075;SDS011;6604;52.484;13.330;2023-04-12T13:00:12;1.57;;;1.10;;
13075;SDS011;6604;52.484;13.330;2023-04-12T13:02:39;2.57;;;1.23;;
13075;SDS011;6604;52.484;13.330;2023-04-12T13:05:06;6.23;;;1.70;;
13075;SDS011;6604;52.484;13.330;2023-04-12T13:07:33;1.70;;;1.03;;
13075;SDS011;6604;52.484;13.330;2023-04-12T13:09:59;1.80;;;1.43;;
13075;SDS011;6604;52.484;13.330;2023-04-12T13:12:27;7.00;;;1.50;;
13075;SDS011;6604;52.484;13.330;2023-04-12T13:14:54;2.07;;;1.13;;
13075;SDS011;6604;52.484;13.330;2023-04-12T13:17:20;1.20;;;1.10;;
13075;SDS011;6604;52.484;13.330;2023-04-12T13:19:47;1.43;;;1.23;;
13075;SDS011;6604;52.484;13.330;2023-04-12T13:22:14;5.03;;;1.17;;
13075;SDS011;6604;52.484;13.330;2023-04-12T13:24:42;3.07;;;1.10;;
13075;SDS011;6604;52.484;13.330;2023-04-12T13:27:08;2.77;;;1.40;;
13075;SDS011;6604;52.484;13.330;2023-04-12T13:29:36;2.50;;;1.27;;
13075;SDS011;6604;52.484;13.330;2023-04-12T13:32:03;4.40;;;1.00;;
13075;SDS011;6604;52.484;13.330;2023-04-12T13:34:30;3.90;;;1.27;;
13075;SDS011;6604;52.484;13.330;2023-04-12T13:36:56;3.27;;;1.50;;
13075;SDS011;6604;52.484;13.330;2023-04-12T13:39:23;4.37;;;1.47;;
13075;SDS011;6604;52.484;13.330;2023-04-12T13:41:49;7.53;;;1.53;;
13075;SDS011;6604;52.484;13.330;2023-04-12T13:44:17;3.83;;;1.10;;
13075;SDS011;6604;52.484;13.330;2023-04-12T13:46:45;3.70;;;1.30;;
13075;SDS011;6604;52.484;13.330;2023-04-12T13:49:11;4.20;;;1.40;;
13075;SDS011;6604;52.484;13.330;2023-04-12T13:51:38;4.87;;;1.30;;
13075;SDS011;6604;52.484;13.330;2023-04-12T13:54:04;3.73;;;1.53;;
13075;SDS011;6604;52.484;13.330;2023-04-12T13:56:31;3.83;;;1.10;;
13075;SDS011;6604;52.484;13.330;2023-04-12T13:58:57;3.87;;;1.30;;
13075;SDS011;6604;52.484;13.330;2023-04-12T14:01:24;3.27;;;1.30;;
13075;SDS011;6604;52.484;13.330;2023-04-12T14:03:53;3.63;;;1.37;;
13075;SDS011;6604;52.484;13.330;2023-04-12T14:06:19;4.83;;;1.33;;
13075;SDS011;6604;52.484;13.330;2023-04-12T14:08:46;3.50;;;1.10;;
13075;SDS011;6604;52.484;13.330;2023-04-12T14:11:13;3.10;;;1.23;;
13075;SDS011;6604;52.484;13.330;2023-04-12T14:13:39;2.50;;;1.23;;
13075;SDS011;6604;52.484;13.330;2023-04-12T14:16:06;7.40;;;1.33;;
13075;SDS011;6604;52.484;13.330;2023-04-12T14:18:35;4.83;;;1.37;;
13075;SDS011;6604;52.484;13.330;2023-04-12T14:21:02;14.60;;;2.00;;
13075;SDS011;6604;52.484;13.330;2023-04-12T14:23:29;2.13;;;1.10;;
13075;SDS011;6604;52.484;13.330;2023-04-12T14:25:56;4.67;;;1.47;;
13075;SDS011;6604;52.484;13.330;2023-04-12T14:28:22;1.53;;;1.03;;
13075;SDS011;6604;52.484;13.330;2023-04-12T14:30:54;2.20;;;1.43;;
13075;SDS011;6604;52.484;13.330;2023-04-12T14:33:21;3.53;;;1.30;;
13075;SDS011;6604;52.484;13.330;2023-04-12T14:35:47;7.97;;;1.40;;
13075;SDS011;6604;52.484;13.330;2023-04-12T14:38:15;1.73;;;1.30;;
13075;SDS011;6604;52.484;13.330;2023-04-12T14:40:42;3.07;;;1.23;;
13075;SDS011;6604;52.484;13.330;2023-04-12T14:43:08;5.43;;;1.47;;
13075;SDS011;6604;52.484;13.330;2023-04-12T14:45:35;2.57;;;1.40;;
13075;SDS011;6604;52.484;13.330;2023-04-12T14:48:02;8.43;;;1.40;;
13075;SDS011;6604;52.484;13.330;2023-04-12T14:50:28;4.10;;;1.33;;
13075;SDS011;6604;52.484;13.330;2023-04-12T14:52:55;12.13;;;1.80;;
13075;SDS011;6604;52.484;13.330;2023-04-12T14:55:23;6.53;;;1.57;;
13075;SDS011;6604;52.484;13.330;2023-04-12T14:57:50;7.43;;;1.80;;
13075;SDS011;6604;52.484;13.330;2023-04-12T15:00:17;7.53;;;1.77;;
13075;SDS011;6604;52.484;13.330;2023-04-12T15:02:44;2.13;;;1.57;;
13075;SDS011;6604;52.484;13.330;2023-04-12T15:05:12;5.93;;;1.50;;
13075;SDS011;6604;52.484;13.330;2023-04-12T15:07:39;5.10;;;1.70;;
13075;SDS011;6604;52.484;13.330;2023-04-12T15:10:06;4.47;;;1.50;;
13075;SDS011;6604;52.484;13.330;2023-04-12T15:12:34;1.33;;;1.20;;
13075;SDS011;6604;52.484;13.330;2023-04-12T15:15:01;4.10;;;1.63;;
13075;SDS011;6604;52.484;13.330;2023-04-12T15:17:28;2.83;;;1.30;;
13075;SDS011;6604;52.484;13.330;2023-04-12T15:19:56;4.77;;;1.60;;
13075;SDS011;6604;52.484;13.330;2023-04-12T15:22:23;6.53;;;1.90;;
13075;SDS011;6604;52.484;13.330;2023-04-12T15:24:50;6.60;;;2.00;;
13075;SDS011;6604;52.484;13.330;2023-04-12T15:27:16;4.53;;;2.13;;
13075;SDS011;6604;52.484;13.330;2023-04-12T15:29:44;7.77;;;1.97;;
13075;SDS011;6604;52.484;13.330;2023-04-12T15:32:11;5.93;;;2.00;;
13075;SDS011;6604;52.484;13.330;2023-04-12T15:34:38;10.13;;;2.40;;
13075;SDS011;6604;52.484;13.330;2023-04-12T15:37:05;4.23;;;2.07;;
13075;SDS011;6604;52.484;13.330;2023-04-12T15:39:31;4.27;;;2.47;;
13075;SDS011;6604;52.484;13.330;2023-04-12T15:41:58;7.80;;;2.30;;
13075;SDS011;6604;52.484;13.330;2023-04-12T15:44:25;11.90;;;2.50;;
13075;SDS011;6604;52.484;13.330;2023-04-12T15:46:57;4.20;;;2.33;;
13075;SDS011;6604;52.484;13.330;2023-04-12T15:49:23;3.47;;;2.10;;
13075;SDS011;6604;52.484;13.330;2023-04-12T15:51:53;3.73;;;1.93;;
13075;SDS011;6604;52.484;13.330;2023-04-12T15:54:20;4.17;;;2.47;;
13075;SDS011;6604;52.484;13.330;2023-04-12T15:56:47;5.27;;;2.73;;
13075;SDS011;6604;52.484;13.330;2023-04-12T15:59:14;5.70;;;2.40;;
13075;SDS011;6604;52.484;13.330;2023-04-12T16:01:43;5.80;;;2.60;;
13075;SDS011;6604;52.484;13.330;2023-04-12T16:04:10;4.03;;;2.40;;
13075;SDS011;6604;52.484;13.330;2023-04-12T16:06:37;3.90;;;2.57;;
13075;SDS011;6604;52.484;13.330;2023-04-12T16:09:04;3.97;;;2.83;;
13075;SDS011;6604;52.484;13.330;2023-04-12T16:11:31;5.50;;;2.47;;
13075;SDS011;6604;52.484;13.330;2023-04-12T16:13:58;4.83;;;2.80;;
13075;SDS011;6604;52.484;13.330;2023-04-12T16:16:25;4.73;;;2.87;;
13075;SDS011;6604;52.484;13.330;2023-04-12T16:18:51;4.60;;;2.57;;
13075;SDS011;6604;52.484;13.330;2023-04-12T16:21:24;4.43;;;2.80;;
13075;SDS011;6604;52.484;13.330;2023-04-12T16:23:51;7.70;;;2.77;;
13075;SDS011;6604;52.484;13.330;2023-04-12T16:26:20;3.93;;;2.63;;
13075;SDS011;6604;52.484;13.330;2023-04-12T16:28:47;3.30;;;2.63;;
13075;SDS011;6604;52.484;13.330;2023-04-12T16:31:14;6.90;;;2.90;;
13075;SDS011;6604;52.484;13.330;2023-04-12T16:33:40;3.87;;;2.60;;
13075;SDS011;6604;52.484;13.330;2023-04-12T16:36:07;5.93;;;2.90;;
13075;SDS011;6604;52.484;13.330;2023-04-12T16:38:35;5.50;;;2.97;;
13075;SDS011;6604;52.484;13.330;2023-04-12T16:41:02;3.90;;;2.80;;
13075;SDS011;6604;52.484;13.330;2023-04-12T16:43:29;5.70;;;2.87;;
13075;SDS011;6604;52.484;13.330;2023-04-12T16:45:55;5.77;;;3.10;;
13075;SDS011;6604;52.484;13.330;2023-04-12T16:48:22;4.73;;;2.83;;
13075;SDS011;6604;52.484;13.330;2023-04-12T16:50:51;5.23;;;2.87;;
13075;SDS011;6604;52.484;13.330;2023-04-12T16:53:17;3.90;;;2.63;;
13075;SDS011;6604;52.484;13.330;2023-04-12T16:55:45;5.60;;;2.80;;
13075;SDS011;6604;52.484;13.330;2023-04-12T16:58:13;6.80;;;2.87;;
13075;SDS011;6604;52.484;13.330;2023-04-12T17:00:40;6.80;;;2.60;;
13075;SDS011;6604;52.484;13.330;2023-04-12T17:03:07;5.87;;;2.73;;
13075;SDS011;6604;52.484;13.330;2023-04-12T17:05:35;5.50;;;2.60;;
13075;SDS011;6604;52.484;13.330;2023-04-12T17:08:02;3.50;;;3.00;;
13075;SDS011;6604;52.484;13.330;2023-04-12T17:10:31;4.17;;;2.70;;
13075;SDS011;6604;52.484;13.330;2023-04-12T17:12:59;4.33;;;2.70;;
13075;SDS011;6604;52.484;13.330;2023-04-12T17:15:26;5.53;;;2.60;;
13075;SDS011;6604;52.484;13.330;2023-04-12T17:17:59;4.23;;;2.40;;
13075;SDS011;6604;52.484;13.330;2023-04-12T17:20:26;5.50;;;2.60;;
13075;SDS011;6604;52.484;13.330;2023-04-12T17:22:53;2.83;;;2.23;;
13075;SDS011;6604;52.484;13.330;2023-04-12T17:25:20;2.50;;;2.10;;
13075;SDS011;6604;52.484;13.330;2023-04-12T17:27:47;3.40;;;2.10;;
13075;SDS011;6604;52.484;13.330;2023-04-12T17:30:15;5.77;;;2.27;;
13075;SDS011;6604;52.484;13.330;2023-04-12T17:32:43;3.07;;;2.00;;
13075;SDS011;6604;52.484;13.330;2023-04-12T17:35:12;2.83;;;1.90;;
13075;SDS011;6604;52.484;13.330;2023-04-12T17:37:39;4.77;;;2.27;;
13075;SDS011;6604;52.484;13.330;2023-04-12T17:40:06;4.23;;;2.50;;
13075;SDS011;6604;52.484;13.330;2023-04-12T17:42:34;3.20;;;2.20;;
13075;SDS011;6604;52.484;13.330;2023-04-12T17:45:01;5.40;;;2.33;;
13075;SDS011;6604;52.484;13.330;2023-04-12T17:47:30;4.40;;;2.10;;
13075;SDS011;6604;52.484;13.330;2023-04-12T17:49:56;3.10;;;2.40;;
13075;SDS011;6604;52.484;13.330;2023-04-12T17:52:24;4.07;;;2.10;;
13075;SDS011;6604;52.484;13.330;2023-04-12T17:54:50;3.30;;;2.10;;
13075;SDS011;6604;52.484;13.330;2023-04-12T17:57:17;3.83;;;2.30;;
13075;SDS011;6604;52.484;13.330;2023-04-12T17:59:43;3.30;;;2.73;;
13075;SDS011;6604;52.484;13.330;2023-04-12T18:02:10;4.47;;;2.43;;
13075;SDS011;6604;52.484;13.330;2023-04-12T18:04:38;3.60;;;2.40;;
13075;SDS011;6604;52.484;13.330;2023-04-12T18:07:05;5.60;;;2.60;;
13075;SDS011;6604;52.484;13.330;2023-04-12T18:09:33;4.07;;;2.60;;
13075;SDS011;6604;52.484;13.330;2023-04-12T18:12:00;3.53;;;2.57;;
13075;SDS011;6604;52.484;13.330;2023-04-12T18:14:27;3.97;;;2.50;;
13075;SDS011;6604;52.484;13.330;2023-04-12T18:16:54;5.60;;;2.60;;
13075;SDS011;6604;52.484;13.330;2023-04-12T18:19:21;3.60;;;2.20;;
13075;SDS011;6604;52.484;13.330;2023-04-12T18:21:48;5.23;;;2.30;;
13075;SDS011;6604;52.484;13.330;2023-04-12T18:24:16;3.90;;;2.40;;
13075;SDS011;6604;52.484;13.330;2023-04-12T18:26:43;3.87;;;2.50;;
13075;SDS011;6604;52.484;13.330;2023-04-12T18:29:09;4.77;;;2.53;;
13075;SDS011;6604;52.484;13.330;2023-04-12T18:31:38;3.10;;;2.40;;
13075;SDS011;6604;52.484;13.330;2023-04-12T18:34:05;2.80;;;2.20;;
13075;SDS011;6604;52.484;13.330;2023-04-12T18:36:32;4.27;;;2.47;;
13075;SDS011;6604;52.484;13.330;2023-04-12T18:39:02;3.10;;;2.53;;
13075;SDS011;6604;52.484;13.330;2023-04-12T18:41:29;3.40;;;2.40;;
13075;SDS011;6604;52.484;13.330;2023-04-12T18:43:56;7.33;;;2.90;;
13075;SDS011;6604;52.484;13.330;2023-04-12T18:46:23;3.67;;;2.37;;
13075;SDS011;6604;52.484;13.330;2023-04-12T18:48:50;4.03;;;3.10;;
13075;SDS011;6604;52.484;13.330;2023-04-12T18:51:19;5.63;;;2.57;;
13075;SDS011;6604;52.484;13.330;2023-04-12T18:53:46;3.33;;;2.37;;
13075;SDS011;6604;52.484;13.330;2023-04-12T18:56:14;5.27;;;2.50;;
13075;SDS011;6604;52.484;13.330;2023-04-12T18:58:47;5.47;;;2.50;;
13075;SDS011;6604;52.484;13.330;2023-04-12T19:01:13;3.97;;;2.30;;
13075;SDS011;6604;52.484;13.330;2023-04-12T19:03:40;3.93;;;2.50;;
13075;SDS011;6604;52.484;13.330;2023-04-12T19:06:07;4.50;;;2.30;;
13075;SDS011;6604;52.484;13.330;2023-04-12T19:08:34;3.10;;;2.53;;
13075;SDS011;6604;52.484;13.330;2023-04-12T19:11:00;2.77;;;2.03;;
13075;SDS011;6604;52.484;13.330;2023-04-12T19:13:28;3.13;;;2.07;;
13075;SDS011;6604;52.484;13.330;2023-04-12T19:15:55;2.87;;;2.30;;
13075;SDS011;6604;52.484;13.330;2023-04-12T19:18:22;3.27;;;2.20;;
13075;SDS011;6604;52.484;13.330;2023-04-12T19:20:51;5.30;;;2.50;;
13075;SDS011;6604;52.484;13.330;2023-04-12T19:23:18;3.03;;;2.20;;
13075;SDS011;6604;52.484;13.330;2023-04-12T19:25:44;2.20;;;1.90;;
13075;SDS011;6604;52.484;13.330;2023-04-12T19:28:11;2.17;;;1.97;;
13075;SDS011;6604;52.484;13.330;2023-04-12T19:30:39;2.47;;;2.10;;
13075;SDS011;6604;52.484;13.330;2023-04-12T19:33:06;3.70;;;2.10;;
13075;SDS011;6604;52.484;13.330;2023-04-12T19:35:33;2.33;;;2.10;;
13075;SDS011;6604;52.484;13.330;2023-04-12T19:37:59;3.30;;;1.87;;
13075;SDS011;6604;52.484;13.330;2023-04-12T19:40:27;2.73;;;1.73;;
13075;SDS011;6604;52.484;13.330;2023-04-12T19:42:54;2.53;;;2.10;;
13075;SDS011;6604;52.484;13.330;2023-04-12T19:45:21;3.17;;;2.00;;
13075;SDS011;6604;52.484;13.330;2023-04-12T19:47:48;2.73;;;2.50;;
13075;SDS011;6604;52.484;13.330;2023-04-12T19:50:15;4.57;;;2.13;;
13075;SDS011;6604;52.484;13.330;2023-04-12T19:52:43;2.87;;;1.90;;
13075;SDS011;6604;52.484;13.330;2023-04-12T19:55:19;3.77;;;2.30;;
13075;SDS011;6604;52.484;13.330;2023-04-12T19:57:48;2.13;;;1.90;;
13075;SDS011;6604;52.484;13.330;2023-04-12T20:00:15;3.67;;;2.30;;
13075;SDS011;6604;52.484;13.330;2023-04-12T20:02:44;3.87;;;2.30;;
13075;SDS011;6604;52.484;13.330;2023-04-12T20:05:13;4.97;;;2.53;;
13075;SDS011;6604;52.484;13.330;2023-04-12T20:07:39;2.73;;;2.20;;
13075;SDS011;6604;52.484;13.330;2023-04-12T20:10:08;3.13;;;2.23;;
13075;SDS011;6604;52.484;13.330;2023-04-12T20:12:35;3.30;;;1.93;;
13075;SDS011;6604;52.484;13.330;2023-04-12T20:15:02;4.53;;;2.30;;
13075;SDS011;6604;52.484;13.330;2023-04-12T20:17:29;2.83;;;2.20;;
13075;SDS011;6604;52.484;13.330;2023-04-12T20:19:55;4.70;;;2.43;;
13075;SDS011;6604;52.484;13.330;2023-04-12T20:22:23;2.87;;;2.27;;
13075;SDS011;6604;52.484;13.330;2023-04-12T20:24:50;2.60;;;2.30;;
13075;SDS011;6604;52.484;13.330;2023-04-12T20:27:19;2.90;;;2.20;;
13075;SDS011;6604;52.484;13.330;2023-04-12T20:29:47;2.73;;;2.20;;
13075;SDS011;6604;52.484;13.330;2023-04-12T20:32:13;4.50;;;2.13;;
13075;SDS011;6604;52.484;13.330;2023-04-12T20:34:41;3.07;;;2.30;;
13075;SDS011;6604;52.484;13.330;2023-04-12T20:37:10;2.43;;;2.10;;
13075;SDS011;6604;52.484;13.330;2023-04-12T20:39:38;3.13;;;1.80;;
13075;SDS011;6604;52.484;13.330;2023-04-12T20:42:06;12.10;;;5.80;;
13075;SDS011;6604;52.484;13.330;2023-04-12T20:44:33;3.97;;;2.40;;
13075;SDS011;6604;52.484;13.330;2023-04-12T20:47:00;3.97;;;2.10;;
13075;SDS011;6604;52.484;13.330;2023-04-12T20:49:26;2.60;;;2.00;;
13075;SDS011;6604;52.484;13.330;2023-04-12T20:51:54;3.47;;;1.87;;
13075;SDS011;6604;52.484;13.330;2023-04-12T20:54:22;6.47;;;2.60;;
13075;SDS011;6604;52.484;13.330;2023-04-12T20:56:51;3.47;;;2.30;;
13075;SDS011;6604;52.484;13.330;2023-04-12T20:59:18;3.43;;;1.87;;
13075;SDS011;6604;52.484;13.330;2023-04-12T21:01:46;2.40;;;2.10;;
13075;SDS011;6604;52.484;13.330;2023-04-12T21:04:13;2.53;;;2.00;;
13075;SDS011;6604;52.484;13.330;2023-04-12T21:06:41;3.17;;;2.10;;
13075;SDS011;6604;52.484;13.330;2023-04-12T21:09:08;2.47;;;2.20;;
13075;SDS011;6604;52.484;13.330;2023-04-12T21:11:34;4.27;;;2.00;;
13075;SDS011;6604;52.484;13.330;2023-04-12T21:14:03;2.37;;;1.97;;
13075;SDS011;6604;52.484;13.330;2023-04-12T21:16:31;2.80;;;1.90;;
13075;SDS011;6604;52.484;13.330;2023-04-12T21:18:58;3.00;;;1.90;;
13075;SDS011;6604;52.484;13.330;2023-04-12T21:21:33;2.57;;;1.93;;
13075;SDS011;6604;52.484;13.330;2023-04-12T21:24:00;2.83;;;1.93;;
13075;SDS011;6604;52.484;13.330;2023-04-12T21:26:27;3.27;;;2.07;;
13075;SDS011;6604;52.484;13.330;2023-04-12T21:28:54;3.77;;;2.10;;
